sensor_id;sensor_type;location;lat;lon;timestamp;P1;durP1;ratioP1;P2;durP2;ratioP2
27113;SDS011;14648;49.730;8.614;2022-12-07T00:01:09;12.70;;;7.37;;
27113;SDS011;14648;49.730;8.614;2022-12-07T00:03:40;12.53;;;7.30;;
27113;SDS011;14648;49.730;8.614;2022-12-07T00:06:08;13.53;;;6.93;;
27113;SDS011;14648;49.730;8.614;2022-12-07T00:08:37;11.87;;;6.40;;
27113;SDS011;14648;49.730;8.614;2022-12-07T00:11:04;10.47;;;6.33;;
27113;SDS011;14648;49.730;8.614;2022-12-07T00:13:40;9.30;;;6.87;;
27113;SDS011;14648;49.730;8.614;2022-12-07T00:16:10;10.27;;;6.67;;
27113;SDS011;14648;49.730;8.614;2022-12-07T00:18:40;11.37;;;6.77;;
27113;SDS011;14648;49.730;8.614;2022-12-07T00:21:09;10.90;;;7.00;;
27113;SDS011;14648;49.730;8.614;2022-12-07T00:23:38;9.40;;;6.00;;
27113;SDS011;14648;49.730;8.614;2022-12-07T00:26:09;9.63;;;6.10;;
27113;SDS011;14648;49.730;8.614;2022-12-07T00:28:38;12.00;;;6.27;;
27113;SDS011;14648;49.730;8.614;2022-12-07T00:31:09;10.07;;;6.63;;
27113;SDS011;14648;49.730;8.614;2022-12-07T00:33:37;10.70;;;6.87;;
27113;SDS011;14648;49.730;8.614;2022-12-07T00:36:04;14.97;;;6.30;;
27113;SDS011;14648;49.730;8.614;2022-12-07T00:38:38;12.27;;;7.10;;
27113;SDS011;14648;49.730;8.614;2022-12-07T00:41:05;8.33;;;6.20;;
27113;SDS011;14648;49.730;8.614;2022-12-07T00:43:34;13.43;;;7.17;;
27113;SDS011;14648;49.730;8.614;2022-12-07T00:46:00;12.67;;;6.70;;
27113;SDS011;14648;49.730;8.614;2022-12-07T00:48:26;11.17;;;6.60;;
27113;SDS011;14648;49.730;8.614;2022-12-07T00:50:52;10.33;;;6.60;;
27113;SDS011;14648;49.730;8.614;2022-12-07T00:53:18;10.20;;;7.40;;
27113;SDS011;14648;49.730;8.614;2022-12-07T00:55:44;10.33;;;6.67;;
27113;SDS011;14648;49.730;8.614;2022-12-07T00:58:10;11.57;;;7.60;;
27113;SDS011;14648;49.730;8.614;2022-12-07T01:00:37;10.70;;;6.27;;
27113;SDS011;14648;49.730;8.614;2022-12-07T01:03:05;12.00;;;6.00;;
27113;SDS011;14648;49.730;8.614;2022-12-07T01:05:32;9.53;;;5.70;;
27113;SDS011;14648;49.730;8.614;2022-12-07T01:07:58;16.73;;;6.87;;
27113;SDS011;14648;49.730;8.614;2022-12-07T01:10:24;8.93;;;6.23;;
27113;SDS011;14648;49.730;8.614;2022-12-07T01:12:50;8.63;;;6.53;;
27113;SDS011;14648;49.730;8.614;2022-12-07T01:15:16;13.47;;;6.60;;
27113;SDS011;14648;49.730;8.614;2022-12-07T01:17:41;15.63;;;6.63;;
27113;SDS011;14648;49.730;8.614;2022-12-07T01:20:07;10.53;;;5.60;;
27113;SDS011;14648;49.730;8.614;2022-12-07T01:22:37;12.50;;;6.30;;
27113;SDS011;14648;49.730;8.614;2022-12-07T01:25:05;13.10;;;6.90;;
27113;SDS011;14648;49.730;8.614;2022-12-07T01:27:33;12.57;;;7.23;;
27113;SDS011;14648;49.730;8.614;2022-12-07T01:29:59;12.10;;;7.23;;
27113;SDS011;14648;49.730;8.614;2022-12-07T01:32:26;11.13;;;7.17;;
27113;SDS011;14648;49.730;8.614;2022-12-07T01:34:52;13.27;;;6.83;;
27113;SDS011;14648;49.730;8.614;2022-12-07T01:37:18;9.80;;;6.17;;
27113;SDS011;14648;49.730;8.614;2022-12-07T01:39:43;13.37;;;7.37;;
27113;SDS011;14648;49.730;8.614;2022-12-07T01:42:10;16.53;;;6.50;;
27113;SDS011;14648;49.730;8.614;2022-12-07T01:48:03;12.20;;;6.13;;
27113;SDS011;14648;49.730;8.614;2022-12-07T01:50:30;11.33;;;6.70;;
27113;SDS011;14648;49.730;8.614;2022-12-07T01:52:57;13.20;;;6.40;;
27113;SDS011;14648;49.730;8.614;2022-12-07T01:55:26;10.53;;;6.83;;
27113;SDS011;14648;49.730;8.614;2022-12-07T01:57:53;8.93;;;6.00;;
27113;SDS011;14648;49.730;8.614;2022-12-07T02:00:20;12.90;;;6.30;;
27113;SDS011;14648;49.730;8.614;2022-12-07T02:02:48;14.63;;;6.30;;
27113;SDS011;14648;49.730;8.614;2022-12-07T02:05:20;9.63;;;5.80;;
27113;SDS011;14648;49.730;8.614;2022-12-07T02:07:49;13.00;;;6.70;;
27113;SDS011;14648;49.730;8.614;2022-12-07T02:10:19;11.00;;;7.17;;
27113;SDS011;14648;49.730;8.614;2022-12-07T02:15:39;13.50;;;6.47;;
27113;SDS011;14648;49.730;8.614;2022-12-07T02:18:32;11.00;;;6.30;;
27113;SDS011;14648;49.730;8.614;2022-12-07T02:21:16;11.13;;;6.50;;
27113;SDS011;14648;49.730;8.614;2022-12-07T02:30:04;11.50;;;6.77;;
27113;SDS011;14648;49.730;8.614;2022-12-07T02:32:43;12.00;;;6.07;;
27113;SDS011;14648;49.730;8.614;2022-12-07T02:35:19;8.17;;;5.60;;
27113;SDS011;14648;49.730;8.614;2022-12-07T02:38:18;10.60;;;6.13;;
27113;SDS011;14648;49.730;8.614;2022-12-07T02:40:58;13.50;;;7.40;;
27113;SDS011;14648;49.730;8.614;2022-12-07T02:43:48;11.97;;;6.90;;
27113;SDS011;14648;49.730;8.614;2022-12-07T02:46:29;14.50;;;7.00;;
27113;SDS011;14648;49.730;8.614;2022-12-07T02:49:05;14.50;;;6.53;;
27113;SDS011;14648;49.730;8.614;2022-12-07T02:51:33;12.73;;;8.47;;
27113;SDS011;14648;49.730;8.614;2022-12-07T02:54:07;13.60;;;6.90;;
27113;SDS011;14648;49.730;8.614;2022-12-07T02:56:43;11.33;;;6.67;;
27113;SDS011;14648;49.730;8.614;2022-12-07T03:11:25;16.13;;;6.70;;
27113;SDS011;14648;49.730;8.614;2022-12-07T03:14:10;8.90;;;6.50;;
27113;SDS011;14648;49.730;8.614;2022-12-07T03:16:52;12.10;;;7.00;;
27113;SDS011;14648;49.730;8.614;2022-12-07T03:19:31;10.90;;;7.17;;
27113;SDS011;14648;49.730;8.614;2022-12-07T03:22:02;12.60;;;6.30;;
27113;SDS011;14648;49.730;8.614;2022-12-07T03:24:36;12.60;;;6.80;;
27113;SDS011;14648;49.730;8.614;2022-12-07T03:27:09;13.30;;;7.00;;
27113;SDS011;14648;49.730;8.614;2022-12-07T03:29:44;12.83;;;7.23;;
27113;SDS011;14648;49.730;8.614;2022-12-07T03:32:23;13.10;;;6.17;;
27113;SDS011;14648;49.730;8.614;2022-12-07T03:37:48;13.37;;;6.70;;
27113;SDS011;14648;49.730;8.614;2022-12-07T03:40:22;11.80;;;7.17;;
27113;SDS011;14648;49.730;8.614;2022-12-07T03:42:58;10.97;;;6.27;;
27113;SDS011;14648;49.730;8.614;2022-12-07T03:45:30;9.83;;;6.70;;
27113;SDS011;14648;49.730;8.614;2022-12-07T03:48:10;9.90;;;6.97;;
27113;SDS011;14648;49.730;8.614;2022-12-07T03:51:11;15.00;;;6.67;;
27113;SDS011;14648;49.730;8.614;2022-12-07T03:53:59;10.80;;;6.40;;
27113;SDS011;14648;49.730;8.614;2022-12-07T03:56:35;9.97;;;6.30;;
27113;SDS011;14648;49.730;8.614;2022-12-07T03:59:01;13.33;;;7.00;;
27113;SDS011;14648;49.730;8.614;2022-12-07T04:01:27;9.80;;;6.37;;
27113;SDS011;14648;49.730;8.614;2022-12-07T04:03:53;11.00;;;6.30;;
27113;SDS011;14648;49.730;8.614;2022-12-07T04:06:18;12.70;;;7.03;;
27113;SDS011;14648;49.730;8.614;2022-12-07T04:08:44;11.80;;;7.20;;
27113;SDS011;14648;49.730;8.614;2022-12-07T04:11:10;9.63;;;6.43;;
27113;SDS011;14648;49.730;8.614;2022-12-07T04:13:35;9.50;;;6.97;;
27113;SDS011;14648;49.730;8.614;2022-12-07T04:16:21;10.93;;;6.00;;
27113;SDS011;14648;49.730;8.614;2022-12-07T04:18:47;11.93;;;6.03;;
27113;SDS011;14648;49.730;8.614;2022-12-07T04:21:12;9.83;;;6.03;;
27113;SDS011;14648;49.730;8.614;2022-12-07T04:23:38;9.27;;;6.37;;
27113;SDS011;14648;49.730;8.614;2022-12-07T04:26:03;12.53;;;6.00;;
27113;SDS011;14648;49.730;8.614;2022-12-07T04:28:29;9.67;;;6.50;;
27113;SDS011;14648;49.730;8.614;2022-12-07T04:30:55;11.07;;;5.70;;
27113;SDS011;14648;49.730;8.614;2022-12-07T04:33:21;9.67;;;6.50;;
27113;SDS011;14648;49.730;8.614;2022-12-07T04:35:46;8.63;;;5.50;;
27113;SDS011;14648;49.730;8.614;2022-12-07T04:38:12;8.57;;;5.70;;
27113;SDS011;14648;49.730;8.614;2022-12-07T04:40:37;10.60;;;5.40;;
27113;SDS011;14648;49.730;8.614;2022-12-07T04:43:03;7.00;;;5.33;;
27113;SDS011;14648;49.730;8.614;2022-12-07T04:45:29;7.70;;;5.60;;
27113;SDS011;14648;49.730;8.614;2022-12-07T04:47:55;7.53;;;5.47;;
27113;SDS011;14648;49.730;8.614;2022-12-07T04:50:21;11.30;;;5.83;;
27113;SDS011;14648;49.730;8.614;2022-12-07T04:52:46;11.80;;;6.00;;
27113;SDS011;14648;49.730;8.614;2022-12-07T04:55:12;11.30;;;5.87;;
27113;SDS011;14648;49.730;8.614;2022-12-07T04:57:37;11.20;;;6.27;;
27113;SDS011;14648;49.730;8.614;2022-12-07T05:00:03;8.40;;;5.90;;
27113;SDS011;14648;49.730;8.614;2022-12-07T05:02:30;9.90;;;5.73;;
27113;SDS011;14648;49.730;8.614;2022-12-07T05:04:55;9.67;;;6.00;;
27113;SDS011;14648;49.730;8.614;2022-12-07T05:07:21;8.93;;;5.57;;
27113;SDS011;14648;49.730;8.614;2022-12-07T05:09:46;11.13;;;6.13;;
27113;SDS011;14648;49.730;8.614;2022-12-07T05:12:12;10.57;;;6.70;;
27113;SDS011;14648;49.730;8.614;2022-12-07T05:14:40;9.40;;;5.80;;
27113;SDS011;14648;49.730;8.614;2022-12-07T05:17:05;10.87;;;7.07;;
27113;SDS011;14648;49.730;8.614;2022-12-07T05:19:31;9.67;;;5.17;;
27113;SDS011;14648;49.730;8.614;2022-12-07T05:21:57;11.10;;;6.00;;
27113;SDS011;14648;49.730;8.614;2022-12-07T05:24:22;12.57;;;6.90;;
27113;SDS011;14648;49.730;8.614;2022-12-07T05:26:48;8.33;;;5.40;;
27113;SDS011;14648;49.730;8.614;2022-12-07T05:29:15;13.90;;;7.77;;
27113;SDS011;14648;49.730;8.614;2022-12-07T05:31:42;10.60;;;6.13;;
27113;SDS011;14648;49.730;8.614;2022-12-07T05:34:09;7.07;;;4.97;;
27113;SDS011;14648;49.730;8.614;2022-12-07T05:36:34;10.87;;;6.20;;
27113;SDS011;14648;49.730;8.614;2022-12-07T05:39:00;7.47;;;5.33;;
27113;SDS011;14648;49.730;8.614;2022-12-07T05:41:26;10.10;;;5.67;;
27113;SDS011;14648;49.730;8.614;2022-12-07T05:44:11;8.73;;;5.80;;
27113;SDS011;14648;49.730;8.614;2022-12-07T05:46:37;11.50;;;6.67;;
27113;SDS011;14648;49.730;8.614;2022-12-07T05:49:03;10.00;;;6.10;;
27113;SDS011;14648;49.730;8.614;2022-12-07T05:51:29;11.53;;;5.83;;
27113;SDS011;14648;49.730;8.614;2022-12-07T05:53:54;14.80;;;5.83;;
27113;SDS011;14648;49.730;8.614;2022-12-07T05:56:20;11.40;;;6.20;;
27113;SDS011;14648;49.730;8.614;2022-12-07T05:58:46;7.10;;;4.80;;
27113;SDS011;14648;49.730;8.614;2022-12-07T06:01:31;10.80;;;5.87;;
27113;SDS011;14648;49.730;8.614;2022-12-07T06:03:56;9.37;;;5.30;;
27113;SDS011;14648;49.730;8.614;2022-12-07T06:06:22;10.20;;;6.00;;
27113;SDS011;14648;49.730;8.614;2022-12-07T06:08:48;11.20;;;5.97;;
27113;SDS011;14648;49.730;8.614;2022-12-07T06:11:13;11.17;;;5.70;;
27113;SDS011;14648;49.730;8.614;2022-12-07T06:13:57;10.10;;;6.67;;
27113;SDS011;14648;49.730;8.614;2022-12-07T06:16:23;11.67;;;6.50;;
27113;SDS011;14648;49.730;8.614;2022-12-07T06:18:49;12.67;;;6.63;;
27113;SDS011;14648;49.730;8.614;2022-12-07T06:21:14;9.97;;;6.20;;
27113;SDS011;14648;49.730;8.614;2022-12-07T06:23:40;13.20;;;7.23;;
27113;SDS011;14648;49.730;8.614;2022-12-07T06:26:06;11.80;;;6.70;;
27113;SDS011;14648;49.730;8.614;2022-12-07T06:28:32;10.70;;;6.90;;
27113;SDS011;14648;49.730;8.614;2022-12-07T06:30:59;11.23;;;6.73;;
27113;SDS011;14648;49.730;8.614;2022-12-07T06:33:26;10.87;;;6.27;;
27113;SDS011;14648;49.730;8.614;2022-12-07T06:35:53;9.07;;;6.10;;
27113;SDS011;14648;49.730;8.614;2022-12-07T06:38:18;12.80;;;7.83;;
27113;SDS011;14648;49.730;8.614;2022-12-07T06:40:45;10.33;;;5.77;;
27113;SDS011;14648;49.730;8.614;2022-12-07T06:43:11;11.33;;;5.27;;
27113;SDS011;14648;49.730;8.614;2022-12-07T06:45:37;10.07;;;5.90;;
27113;SDS011;14648;49.730;8.614;2022-12-07T06:48:02;12.47;;;6.83;;
27113;SDS011;14648;49.730;8.614;2022-12-07T06:50:28;14.23;;;6.50;;
27113;SDS011;14648;49.730;8.614;2022-12-07T06:52:54;11.03;;;7.03;;
27113;SDS011;14648;49.730;8.614;2022-12-07T06:55:19;8.77;;;6.03;;
27113;SDS011;14648;49.730;8.614;2022-12-07T06:57:45;11.50;;;7.20;;
27113;SDS011;14648;49.730;8.614;2022-12-07T07:00:11;13.27;;;7.27;;
27113;SDS011;14648;49.730;8.614;2022-12-07T07:02:37;11.50;;;7.73;;
27113;SDS011;14648;49.730;8.614;2022-12-07T07:05:03;14.67;;;6.83;;
27113;SDS011;14648;49.730;8.614;2022-12-07T07:07:29;9.13;;;6.13;;
27113;SDS011;14648;49.730;8.614;2022-12-07T07:09:55;11.90;;;6.37;;
27113;SDS011;14648;49.730;8.614;2022-12-07T07:12:20;11.07;;;6.40;;
27113;SDS011;14648;49.730;8.614;2022-12-07T07:14:46;9.60;;;6.30;;
27113;SDS011;14648;49.730;8.614;2022-12-07T07:17:12;7.10;;;5.13;;
27113;SDS011;14648;49.730;8.614;2022-12-07T07:19:38;12.57;;;6.83;;
27113;SDS011;14648;49.730;8.614;2022-12-07T07:22:03;15.00;;;6.73;;
27113;SDS011;14648;49.730;8.614;2022-12-07T07:24:29;11.73;;;6.77;;
27113;SDS011;14648;49.730;8.614;2022-12-07T07:26:55;9.80;;;6.30;;
27113;SDS011;14648;49.730;8.614;2022-12-07T07:29:21;8.87;;;6.40;;
27113;SDS011;14648;49.730;8.614;2022-12-07T07:31:46;9.20;;;6.20;;
27113;SDS011;14648;49.730;8.614;2022-12-07T07:34:12;14.60;;;7.10;;
27113;SDS011;14648;49.730;8.614;2022-12-07T07:36:39;11.80;;;7.23;;
27113;SDS011;14648;49.730;8.614;2022-12-07T07:39:05;12.30;;;7.00;;
27113;SDS011;14648;49.730;8.614;2022-12-07T07:41:31;13.67;;;6.50;;
27113;SDS011;14648;49.730;8.614;2022-12-07T07:43:56;10.10;;;6.17;;
27113;SDS011;14648;49.730;8.614;2022-12-07T07:46:22;8.87;;;6.00;;
27113;SDS011;14648;49.730;8.614;2022-12-07T07:48:48;16.30;;;7.10;;
27113;SDS011;14648;49.730;8.614;2022-12-07T07:51:14;11.40;;;5.70;;
27113;SDS011;14648;49.730;8.614;2022-12-07T07:53:39;10.37;;;6.60;;
27113;SDS011;14648;49.730;8.614;2022-12-07T07:56:06;17.73;;;8.27;;
27113;SDS011;14648;49.730;8.614;2022-12-07T07:58:32;10.40;;;6.40;;
27113;SDS011;14648;49.730;8.614;2022-12-07T08:01:02;18.70;;;7.27;;
27113;SDS011;14648;49.730;8.614;2022-12-07T08:03:32;10.07;;;6.20;;
27113;SDS011;14648;49.730;8.614;2022-12-07T08:05:58;11.30;;;6.27;;
27113;SDS011;14648;49.730;8.614;2022-12-07T08:08:24;10.80;;;6.27;;
27113;SDS011;14648;49.730;8.614;2022-12-07T08:10:50;10.93;;;6.47;;
27113;SDS011;14648;49.730;8.614;2022-12-07T08:13:16;10.90;;;7.07;;
27113;SDS011;14648;49.730;8.614;2022-12-07T08:15:42;14.10;;;6.37;;
27113;SDS011;14648;49.730;8.614;2022-12-07T08:18:12;22.20;;;9.03;;
27113;SDS011;14648;49.730;8.614;2022-12-07T08:20:39;12.30;;;6.63;;
27113;SDS011;14648;49.730;8.614;2022-12-07T08:23:07;15.30;;;6.80;;
27113;SDS011;14648;49.730;8.614;2022-12-07T08:25:33;13.43;;;6.93;;
27113;SDS011;14648;49.730;8.614;2022-12-07T08:28:01;12.20;;;7.03;;
27113;SDS011;14648;49.730;8.614;2022-12-07T08:30:28;13.03;;;7.30;;
27113;SDS011;14648;49.730;8.614;2022-12-07T08:32:54;8.87;;;6.60;;
27113;SDS011;14648;49.730;8.614;2022-12-07T08:35:21;10.80;;;6.70;;
27113;SDS011;14648;49.730;8.614;2022-12-07T08:37:47;12.33;;;6.93;;
27113;SDS011;14648;49.730;8.614;2022-12-07T08:40:13;12.63;;;7.53;;
27113;SDS011;14648;49.730;8.614;2022-12-07T08:42:43;8.90;;;6.17;;
27113;SDS011;14648;49.730;8.614;2022-12-07T08:45:14;14.90;;;7.57;;
27113;SDS011;14648;49.730;8.614;2022-12-07T08:47:47;10.70;;;7.40;;
27113;SDS011;14648;49.730;8.614;2022-12-07T08:50:28;11.20;;;7.37;;
27113;SDS011;14648;49.730;8.614;2022-12-07T08:52:55;11.07;;;8.10;;
27113;SDS011;14648;49.730;8.614;2022-12-07T08:55:23;12.30;;;7.33;;
27113;SDS011;14648;49.730;8.614;2022-12-07T08:57:48;13.70;;;7.60;;
27113;SDS011;14648;49.730;8.614;2022-12-07T09:00:15;9.60;;;7.73;;
27113;SDS011;14648;49.730;8.614;2022-12-07T09:02:42;11.27;;;6.77;;
27113;SDS011;14648;49.730;8.614;2022-12-07T09:05:09;13.83;;;8.10;;
27113;SDS011;14648;49.730;8.614;2022-12-07T09:07:35;13.93;;;7.60;;
27113;SDS011;14648;49.730;8.614;2022-12-07T09:10:03;15.10;;;7.40;;
27113;SDS011;14648;49.730;8.614;2022-12-07T09:12:31;12.97;;;6.93;;
27113;SDS011;14648;49.730;8.614;2022-12-07T09:14:56;16.00;;;7.70;;
27113;SDS011;14648;49.730;8.614;2022-12-07T09:17:22;13.80;;;9.23;;
27113;SDS011;14648;49.730;8.614;2022-12-07T09:19:48;13.40;;;7.83;;
27113;SDS011;14648;49.730;8.614;2022-12-07T09:22:13;17.63;;;9.20;;
27113;SDS011;14648;49.730;8.614;2022-12-07T09:24:39;17.17;;;9.07;;
27113;SDS011;14648;49.730;8.614;2022-12-07T09:27:05;21.13;;;10.00;;
27113;SDS011;14648;49.730;8.614;2022-12-07T09:29:31;13.37;;;8.40;;
27113;SDS011;14648;49.730;8.614;2022-12-07T09:31:56;15.40;;;8.40;;
27113;SDS011;14648;49.730;8.614;2022-12-07T09:34:22;20.17;;;9.07;;
27113;SDS011;14648;49.730;8.614;2022-12-07T09:36:48;11.13;;;7.63;;
27113;SDS011;14648;49.730;8.614;2022-12-07T09:39:13;20.23;;;9.00;;
27113;SDS011;14648;49.730;8.614;2022-12-07T09:41:39;11.60;;;7.57;;
27113;SDS011;14648;49.730;8.614;2022-12-07T09:44:12;12.70;;;8.17;;
27113;SDS011;14648;49.730;8.614;2022-12-07T09:46:45;16.33;;;9.23;;
27113;SDS011;14648;49.730;8.614;2022-12-07T09:49:12;13.13;;;7.73;;
27113;SDS011;14648;49.730;8.614;2022-12-07T09:51:44;16.83;;;9.03;;
27113;SDS011;14648;49.730;8.614;2022-12-07T09:54:13;18.03;;;9.00;;
27113;SDS011;14648;49.730;8.614;2022-12-07T09:56:41;13.90;;;8.40;;
27113;SDS011;14648;49.730;8.614;2022-12-07T09:59:09;11.53;;;8.30;;
27113;SDS011;14648;49.730;8.614;2022-12-07T10:01:42;13.00;;;7.40;;
27113;SDS011;14648;49.730;8.614;2022-12-07T10:04:14;11.30;;;8.20;;
27113;SDS011;14648;49.730;8.614;2022-12-07T10:06:44;16.93;;;9.00;;
27113;SDS011;14648;49.730;8.614;2022-12-07T10:09:14;13.73;;;8.40;;
27113;SDS011;14648;49.730;8.614;2022-12-07T10:14:37;14.67;;;7.43;;
27113;SDS011;14648;49.730;8.614;2022-12-07T10:20:14;13.20;;;8.77;;
27113;SDS011;14648;49.730;8.614;2022-12-07T10:23:05;13.00;;;8.53;;
27113;SDS011;14648;49.730;8.614;2022-12-07T10:25:44;13.73;;;8.50;;
27113;SDS011;14648;49.730;8.614;2022-12-07T10:28:14;11.77;;;8.60;;
27113;SDS011;14648;49.730;8.614;2022-12-07T10:31:02;14.60;;;9.07;;
27113;SDS011;14648;49.730;8.614;2022-12-07T10:33:54;13.90;;;8.57;;
27113;SDS011;14648;49.730;8.614;2022-12-07T10:36:27;17.37;;;9.60;;
27113;SDS011;14648;49.730;8.614;2022-12-07T10:39:14;17.17;;;8.60;;
27113;SDS011;14648;49.730;8.614;2022-12-07T10:41:53;13.60;;;8.63;;
27113;SDS011;14648;49.730;8.614;2022-12-07T10:44:25;14.47;;;7.70;;
27113;SDS011;14648;49.730;8.614;2022-12-07T10:47:09;16.63;;;9.30;;
27113;SDS011;14648;49.730;8.614;2022-12-07T10:50:27;17.20;;;9.17;;
27113;SDS011;14648;49.730;8.614;2022-12-07T10:53:28;12.43;;;8.10;;
27113;SDS011;14648;49.730;8.614;2022-12-07T11:10:37;11.60;;;8.10;;
27113;SDS011;14648;49.730;8.614;2022-12-07T11:16:24;15.70;;;10.20;;
27113;SDS011;14648;49.730;8.614;2022-12-07T11:19:14;11.33;;;8.00;;
27113;SDS011;14648;49.730;8.614;2022-12-07T11:22:04;15.60;;;9.17;;
27113;SDS011;14648;49.730;8.614;2022-12-07T11:24:40;17.23;;;8.80;;
27113;SDS011;14648;49.730;8.614;2022-12-07T11:30:18;18.77;;;9.20;;
27113;SDS011;14648;49.730;8.614;2022-12-07T11:32:57;12.53;;;7.80;;
27113;SDS011;14648;49.730;8.614;2022-12-07T11:35:46;15.23;;;9.20;;
27113;SDS011;14648;49.730;8.614;2022-12-07T11:38:44;17.37;;;9.57;;
27113;SDS011;14648;49.730;8.614;2022-12-07T11:41:18;17.33;;;10.53;;
27113;SDS011;14648;49.730;8.614;2022-12-07T11:46:24;13.90;;;8.10;;
27113;SDS011;14648;49.730;8.614;2022-12-07T11:49:13;17.77;;;9.70;;
27113;SDS011;14648;49.730;8.614;2022-12-07T11:58:14;11.67;;;8.53;;
27113;SDS011;14648;49.730;8.614;2022-12-07T12:06:35;18.80;;;8.23;;
27113;SDS011;14648;49.730;8.614;2022-12-07T12:09:11;14.50;;;9.30;;
27113;SDS011;14648;49.730;8.614;2022-12-07T12:14:46;12.53;;;8.23;;
27113;SDS011;14648;49.730;8.614;2022-12-07T12:17:43;14.50;;;8.80;;
27113;SDS011;14648;49.730;8.614;2022-12-07T12:20:31;24.20;;;9.67;;
27113;SDS011;14648;49.730;8.614;2022-12-07T12:25:46;11.93;;;8.67;;
27113;SDS011;14648;49.730;8.614;2022-12-07T12:28:52;14.40;;;8.20;;
27113;SDS011;14648;49.730;8.614;2022-12-07T12:33:59;15.20;;;8.60;;
27113;SDS011;14648;49.730;8.614;2022-12-07T12:46:59;13.03;;;6.93;;
27113;SDS011;14648;49.730;8.614;2022-12-07T12:50:17;8.63;;;6.30;;
27113;SDS011;14648;49.730;8.614;2022-12-07T12:53:05;11.80;;;7.67;;
27113;SDS011;14648;49.730;8.614;2022-12-07T12:58:47;11.53;;;7.40;;
27113;SDS011;14648;49.730;8.614;2022-12-07T13:01:35;10.17;;;6.47;;
27113;SDS011;14648;49.730;8.614;2022-12-07T13:04:14;6.67;;;5.00;;
27113;SDS011;14648;49.730;8.614;2022-12-07T13:06:48;5.40;;;3.90;;
27113;SDS011;14648;49.730;8.614;2022-12-07T13:09:18;4.33;;;2.77;;
27113;SDS011;14648;49.730;8.614;2022-12-07T13:11:55;3.77;;;2.53;;
27113;SDS011;14648;49.730;8.614;2022-12-07T13:14:43;4.40;;;2.30;;
27113;SDS011;14648;49.730;8.614;2022-12-07T13:20:01;2.50;;;2.30;;
27113;SDS011;14648;49.730;8.614;2022-12-07T13:27:47;2.53;;;2.33;;
27113;SDS011;14648;49.730;8.614;2022-12-07T13:30:23;4.23;;;2.63;;
27113;SDS011;14648;49.730;8.614;2022-12-07T13:32:52;10.20;;;2.60;;
27113;SDS011;14648;49.730;8.614;2022-12-07T13:35:27;2.80;;;2.20;;
27113;SDS011;14648;49.730;8.614;2022-12-07T13:38:02;4.60;;;2.67;;
27113;SDS011;14648;49.730;8.614;2022-12-07T13:40:38;4.23;;;2.93;;
27113;SDS011;14648;49.730;8.614;2022-12-07T13:43:04;8.23;;;2.13;;
27113;SDS011;14648;49.730;8.614;2022-12-07T13:45:40;5.77;;;2.80;;
27113;SDS011;14648;49.730;8.614;2022-12-07T13:48:20;9.00;;;3.03;;
27113;SDS011;14648;49.730;8.614;2022-12-07T13:50:53;3.07;;;2.67;;
27113;SDS011;14648;49.730;8.614;2022-12-07T13:53:21;4.50;;;2.70;;
27113;SDS011;14648;49.730;8.614;2022-12-07T13:55:47;3.57;;;2.20;;
27113;SDS011;14648;49.730;8.614;2022-12-07T13:58:13;3.63;;;2.40;;
27113;SDS011;14648;49.730;8.614;2022-12-07T14:00:39;4.73;;;2.67;;
27113;SDS011;14648;49.730;8.614;2022-12-07T14:05:38;3.30;;;2.87;;
27113;SDS011;14648;49.730;8.614;2022-12-07T14:10:52;2.50;;;2.30;;
27113;SDS011;14648;49.730;8.614;2022-12-07T14:18:55;3.73;;;2.80;;
27113;SDS011;14648;49.730;8.614;2022-12-07T14:21:24;5.33;;;3.17;;
27113;SDS011;14648;49.730;8.614;2022-12-07T14:24:09;5.23;;;2.90;;
27113;SDS011;14648;49.730;8.614;2022-12-07T14:26:44;4.80;;;3.20;;
27113;SDS011;14648;49.730;8.614;2022-12-07T14:29:20;3.53;;;3.07;;
27113;SDS011;14648;49.730;8.614;2022-12-07T14:31:49;5.43;;;3.60;;
27113;SDS011;14648;49.730;8.614;2022-12-07T14:34:19;5.40;;;4.07;;
27113;SDS011;14648;49.730;8.614;2022-12-07T14:36:46;7.53;;;3.10;;
27113;SDS011;14648;49.730;8.614;2022-12-07T14:39:12;3.67;;;3.13;;
27113;SDS011;14648;49.730;8.614;2022-12-07T14:41:37;5.00;;;2.80;;
27113;SDS011;14648;49.730;8.614;2022-12-07T14:44:15;5.43;;;2.80;;
27113;SDS011;14648;49.730;8.614;2022-12-07T14:46:42;9.17;;;2.90;;
27113;SDS011;14648;49.730;8.614;2022-12-07T14:49:08;4.13;;;2.93;;
27113;SDS011;14648;49.730;8.614;2022-12-07T14:51:34;6.03;;;3.17;;
27113;SDS011;14648;49.730;8.614;2022-12-07T14:54:03;6.17;;;3.37;;
27113;SDS011;14648;49.730;8.614;2022-12-07T14:56:30;6.77;;;2.57;;
27113;SDS011;14648;49.730;8.614;2022-12-07T14:58:56;8.20;;;3.60;;
27113;SDS011;14648;49.730;8.614;2022-12-07T15:01:22;6.90;;;3.70;;
27113;SDS011;14648;49.730;8.614;2022-12-07T15:03:48;5.10;;;3.40;;
27113;SDS011;14648;49.730;8.614;2022-12-07T15:06:16;7.07;;;3.80;;
27113;SDS011;14648;49.730;8.614;2022-12-07T15:08:43;21.10;;;4.10;;
27113;SDS011;14648;49.730;8.614;2022-12-07T15:11:11;7.83;;;3.37;;
27113;SDS011;14648;49.730;8.614;2022-12-07T15:13:42;12.10;;;3.53;;
27113;SDS011;14648;49.730;8.614;2022-12-07T15:16:27;5.57;;;3.10;;
27113;SDS011;14648;49.730;8.614;2022-12-07T15:18:52;10.77;;;4.87;;
27113;SDS011;14648;49.730;8.614;2022-12-07T15:21:18;6.57;;;3.37;;
27113;SDS011;14648;49.730;8.614;2022-12-07T15:23:44;4.40;;;3.37;;
27113;SDS011;14648;49.730;8.614;2022-12-07T15:26:12;4.87;;;3.83;;
27113;SDS011;14648;49.730;8.614;2022-12-07T15:28:39;8.20;;;3.60;;
27113;SDS011;14648;49.730;8.614;2022-12-07T15:31:12;10.17;;;4.50;;
27113;SDS011;14648;49.730;8.614;2022-12-07T15:33:42;4.43;;;3.53;;
27113;SDS011;14648;49.730;8.614;2022-12-07T15:36:09;6.03;;;3.30;;
27113;SDS011;14648;49.730;8.614;2022-12-07T15:38:47;4.40;;;3.33;;
27113;SDS011;14648;49.730;8.614;2022-12-07T15:41:13;9.90;;;3.87;;
27113;SDS011;14648;49.730;8.614;2022-12-07T15:43:38;5.73;;;4.10;;
27113;SDS011;14648;49.730;8.614;2022-12-07T15:46:23;9.40;;;3.90;;
27113;SDS011;14648;49.730;8.614;2022-12-07T15:48:48;6.83;;;3.40;;
27113;SDS011;14648;49.730;8.614;2022-12-07T15:51:14;5.23;;;3.30;;
27113;SDS011;14648;49.730;8.614;2022-12-07T15:53:39;7.60;;;3.07;;
27113;SDS011;14648;49.730;8.614;2022-12-07T15:56:06;3.53;;;3.00;;
27113;SDS011;14648;49.730;8.614;2022-12-07T15:58:33;6.60;;;3.80;;
27113;SDS011;14648;49.730;8.614;2022-12-07T16:00:59;3.57;;;3.23;;
27113;SDS011;14648;49.730;8.614;2022-12-07T16:03:26;4.87;;;3.33;;
27113;SDS011;14648;49.730;8.614;2022-12-07T16:05:52;4.90;;;3.90;;
27113;SDS011;14648;49.730;8.614;2022-12-07T16:08:18;3.60;;;3.30;;
27113;SDS011;14648;49.730;8.614;2022-12-07T16:10:44;4.90;;;3.60;;
27113;SDS011;14648;49.730;8.614;2022-12-07T16:13:10;5.60;;;3.20;;
27113;SDS011;14648;49.730;8.614;2022-12-07T16:15:39;3.53;;;3.20;;
27113;SDS011;14648;49.730;8.614;2022-12-07T16:18:08;12.63;;;3.70;;
27113;SDS011;14648;49.730;8.614;2022-12-07T16:20:34;4.80;;;3.43;;
27113;SDS011;14648;49.730;8.614;2022-12-07T16:23:00;6.07;;;3.60;;
27113;SDS011;14648;49.730;8.614;2022-12-07T16:25:25;5.70;;;3.70;;
27113;SDS011;14648;49.730;8.614;2022-12-07T16:27:51;5.97;;;3.60;;
27113;SDS011;14648;49.730;8.614;2022-12-07T16:30:18;8.33;;;3.20;;
27113;SDS011;14648;49.730;8.614;2022-12-07T16:32:43;9.73;;;3.53;;
27113;SDS011;14648;49.730;8.614;2022-12-07T16:35:10;4.13;;;3.10;;
27113;SDS011;14648;49.730;8.614;2022-12-07T16:37:36;7.00;;;3.83;;
27113;SDS011;14648;49.730;8.614;2022-12-07T16:40:02;4.80;;;3.60;;
27113;SDS011;14648;49.730;8.614;2022-12-07T16:42:32;6.83;;;3.57;;
27113;SDS011;14648;49.730;8.614;2022-12-07T16:44:59;6.87;;;3.93;;
27113;SDS011;14648;49.730;8.614;2022-12-07T16:47:25;7.13;;;3.20;;